Terminal Aerodrome Forecast
Issued by NWS Pocatello, ID

Home | Current Version | Previous Version | Text Only | Print | Product List | Glossary On
Versions: 1 2 3 4 5 6 7 8 9 10 11 12
880
FTUS45 KPIH 041120
TAFIDA
TAF
KIDA 041120Z 0412/0512 36006KT P6SM SCT100
     FM041700 20010KT P6SM FEW070 BKN100
     FM050200 18007KT P6SM SKC
     FM050600 01005KT P6SM SCT080 BKN150=

USA.gov is the U.S. government's official web portal to all federal, state and local government web resources and services.